Time;durP1;ratioP1;P1;durP2;ratioP2;P2;SDS_P1;SDS_P2;PMS_P1;PMS_P2;Temp;Humidity;BMP_temperature;BMP_pressure;BME280_temperature;BME280_humidity;BME280_pressure;Samples;Min_cycle;Max_cycle;Signal;HPM_P1;HPM_P2
2022/04/03 00:00:00;;;;;;;24.42;21.45;;;;;;;2.11;67.92;95034.69;5030896;28;20053;-70
2022/04/03 00:02:26;;;;;;;25.38;21.15;;;;;;;2.50;67.18;95114.72;5030761;28;20047;-70
2022/04/03 00:04:51;;;;;;;22.00;18.35;;;;;;;1.56;66.89;94911.59;5029512;28;20060;-70
2022/04/03 00:07:16;;;;;;;25.95;21.17;;;;;;;2.48;67.04;95095.00;5029547;28;20025;-70
2022/04/03 00:09:42;;;;;;;20.10;17.60;;;;;;;1.69;68.37;95067.69;5031186;28;20038;-70
2022/04/03 00:12:07;;;;;;;24.40;21.13;;;;;;;2.58;67.25;95084.56;5034765;28;20104;-69
2022/04/03 00:14:33;;;;;;;25.25;22.55;;;;;;;3.19;66.32;95094.56;5035323;28;20108;-69
2022/04/03 00:16:58;;;;;;;26.13;19.27;;;;;;;2.48;66.86;95087.94;5033132;28;20591;-69
2022/04/03 00:19:23;;;;;;;29.02;21.25;;;;;;;3.29;66.10;95121.66;5034758;28;20458;-69
2022/04/03 00:21:49;;;;;;;25.60;22.52;;;;;;;3.23;65.83;95090.38;5033090;28;20432;-70
2022/04/03 00:24:15;;;;;;;22.52;20.13;;;;;;;3.35;65.13;95118.00;5034486;28;20773;-70
2022/04/03 00:26:40;;;;;;;26.55;20.80;;;;;;;2.68;65.29;95053.09;5033175;28;20037;-69
2022/04/03 00:29:06;;;;;;;25.85;22.05;;;;;;;2.55;66.21;95049.09;5033229;28;20029;-70
2022/04/03 00:31:31;;;;;;;26.23;23.45;;;;;;;2.74;66.01;95069.69;5034492;28;20030;-70
2022/04/03 00:33:56;;;;;;;27.10;22.60;;;;;;;2.26;68.42;95109.06;5034568;28;20029;-70
2022/04/03 00:36:22;;;;;;;22.52;18.25;;;;;;;1.59;70.15;95108.75;5034258;28;20033;-69
2022/04/03 00:38:48;;;;;;;30.88;24.92;;;;;;;2.12;67.72;95031.00;5032988;28;20118;-69
2022/04/03 00:41:14;;;;;;;30.25;25.48;;;;;;;3.13;66.75;95146.31;5033987;28;20040;-70
2022/04/03 00:43:40;;;;;;;31.08;24.73;;;;;;;2.81;65.15;95015.06;5032844;28;20437;-70
2022/04/03 00:46:06;;;;;;;30.80;25.08;;;;;;;2.75;65.09;94989.81;5034136;28;20103;-68
2022/04/03 00:48:32;;;;;;;30.30;24.92;;;;;;;3.56;64.74;95082.03;5032943;28;20364;-69
2022/04/03 00:50:57;;;;;;;31.17;26.27;;;;;;;3.95;63.72;95078.13;5033641;28;20048;-69
2022/04/03 00:53:23;;;;;;;31.45;25.75;;;;;;;4.46;63.34;95128.91;5032775;28;20032;-69
2022/04/03 00:55:50;;;;;;;29.02;25.27;;;;;;;3.80;62.97;95113.88;5033937;28;20743;-68
2022/04/03 00:58:15;;;;;;;28.77;24.30;;;;;;;3.14;65.33;95137.38;5033915;28;20029;-69
2022/04/03 01:00:41;;;;;;;35.05;27.15;;;;;;;2.68;65.00;95029.47;5032095;28;20355;-69
2022/04/03 01:03:07;;;;;;;34.55;26.73;;;;;;;2.86;65.01;95060.53;5033848;28;20087;-69
2022/04/03 01:05:33;;;;;;;34.47;25.90;;;;;;;2.80;66.37;95144.81;5032576;28;20049;-69
2022/04/03 01:07:59;;;;;;;26.58;19.63;;;;;;;1.86;67.32;95099.03;5033858;28;20053;-71
2022/04/03 01:10:24;;;;;;;34.55;26.90;;;;;;;2.02;67.60;95029.91;5033124;28;20025;-69
2022/04/03 01:12:49;;;;;;;32.35;26.77;;;;;;;3.03;65.45;95086.63;5033427;28;20029;-71
2022/04/03 01:15:16;;;;;;;37.65;28.58;;;;;;;2.83;65.99;95082.06;5032412;28;20025;-69
2022/04/03 01:17:42;;;;;;;33.90;26.98;;;;;;;3.32;64.58;95107.19;5033978;28;20029;-69
2022/04/03 01:20:09;;;;;;;32.80;25.10;;;;;;;3.30;64.65;95133.75;5033657;28;20025;-69
2022/04/03 01:22:35;;;;;;;30.83;23.80;;;;;;;2.01;68.38;95116.75;5033217;28;20052;-69
2022/04/03 01:25:00;;;;;;;34.63;27.27;;;;;;;3.39;65.45;95136.69;5032407;28;20034;-69
2022/04/03 01:27:25;;;;;;;32.97;24.63;;;;;;;2.52;67.22;95146.78;5032074;28;20116;-69
2022/04/03 01:29:52;;;;;;;32.67;27.17;;;;;;;3.18;65.64;95119.25;5033076;28;20032;-69
2022/04/03 01:32:19;;;;;;;30.75;25.23;;;;;;;2.71;66.19;95139.25;5032912;28;20033;-69
2022/04/03 01:34:45;;;;;;;30.80;24.30;;;;;;;1.47;67.67;95017.16;5032054;28;20120;-69
2022/04/03 01:37:11;;;;;;;24.02;20.48;;;;;;;0.93;67.66;95007.50;5031966;28;20390;-69
2022/04/03 01:39:36;;;;;;;32.58;24.65;;;;;;;2.21;67.13;95123.97;5031699;28;20083;-68
2022/04/03 01:42:03;;;;;;;28.40;23.75;;;;;;;1.93;68.06;95091.75;5032915;28;20494;-69
2022/04/03 01:44:28;;;;;;;34.40;25.17;;;;;;;2.04;67.37;95063.75;5032914;28;20034;-68
2022/04/03 01:46:54;;;;;;;35.55;26.85;;;;;;;2.70;65.94;95086.97;5032934;28;20056;-68
2022/04/03 01:49:19;;;;;;;31.17;23.90;;;;;;;2.85;65.75;95160.63;5032901;28;20394;-68
2022/04/03 01:51:44;;;;;;;30.63;24.92;;;;;;;2.25;66.64;95109.28;5032397;28;20555;-68
2022/04/03 01:54:10;;;;;;;32.95;26.23;;;;;;;2.32;65.14;95060.00;5031701;28;20036;-68
2022/04/03 01:56:36;;;;;;;35.35;27.85;;;;;;;3.41;64.80;95134.56;5032841;28;20035;-68
2022/04/03 01:59:04;;;;;;;37.70;26.63;;;;;;;2.45;62.34;94964.25;5032795;28;20026;-68
2022/04/03 02:01:31;;;;;;;35.38;26.38;;;;;;;2.86;63.36;95112.28;5030997;28;20029;-68
2022/04/03 02:03:56;;;;;;;39.35;27.25;;;;;;;3.27;64.89;95121.13;5032693;28;20387;-68
2022/04/03 02:06:22;;;;;;;35.50;25.67;;;;;;;2.86;64.15;95080.75;5032380;28;20036;-68
2022/04/03 02:08:47;;;;;;;40.08;30.17;;;;;;;3.89;63.52;95151.78;5032709;28;20030;-68
2022/04/03 02:11:14;;;;;;;40.05;29.58;;;;;;;3.85;63.06;95137.56;5032203;28;20064;-69
2022/04/03 02:13:40;;;;;;;36.95;28.25;;;;;;;3.75;63.39;95139.41;5031471;28;20611;-69
2022/04/03 02:16:05;;;;;;;42.97;29.55;;;;;;;3.64;62.69;95101.78;5031106;28;20041;-68
2022/04/03 02:18:30;;;;;;;40.53;29.65;;;;;;;3.42;63.68;95180.84;5032383;28;20076;-68
2022/04/03 02:20:56;;;;;;;49.72;32.08;;;;;;;3.83;63.27;95120.47;5031887;28;20071;-68
2022/04/03 02:23:21;;;;;;;44.47;30.08;;;;;;;3.53;63.79;95165.91;5032114;28;20037;-68
2022/04/03 02:25:49;;;;;;;47.90;33.92;;;;;;;3.71;63.19;95135.72;5032009;28;20075;-68
2022/04/03 02:28:15;;;;;;;44.20;30.20;;;;;;;2.12;65.00;95026.56;5032476;28;20030;-68
2022/04/03 02:30:40;;;;;;;42.85;31.02;;;;;;;3.03;63.60;95083.19;5030976;28;20034;-68
2022/04/03 02:33:06;;;;;;;42.03;29.50;;;;;;;2.28;65.58;95062.34;5030474;28;20139;-69
2022/04/03 02:35:32;;;;;;;43.78;32.33;;;;;;;3.55;64.32;95172.50;5030868;28;20057;-68
2022/04/03 02:37:58;;;;;;;45.95;32.13;;;;;;;3.18;64.24;95119.25;5032136;28;20044;-69
2022/04/03 02:40:23;;;;;;;42.97;30.98;;;;;;;2.50;65.72;95111.28;5030424;28;20029;-69
2022/04/03 02:42:49;;;;;;;41.20;29.70;;;;;;;2.58;65.88;95111.63;5030956;28;20518;-69
2022/04/03 02:45:15;;;;;;;40.80;30.30;;;;;;;2.12;65.45;95044.94;5030867;28;20025;-69
2022/04/03 02:47:48;;;;;;;46.20;31.83;;;;;;;2.89;65.32;95140.69;5032258;28;20032;-68
2022/04/03 02:50:16;;;;;;;45.45;31.70;;;;;;;2.59;65.29;95049.38;5030594;28;20116;-70
2022/04/03 02:52:41;;;;;;;45.75;33.03;;;;;;;3.12;63.85;95079.81;5031927;28;20029;-68
2022/04/03 02:55:07;;;;;;;38.08;27.92;;;;;;;1.81;65.27;95021.09;5031223;28;20083;-68
2022/04/03 02:57:32;;;;;;;36.25;27.23;;;;;;;1.67;66.41;95055.88;5029252;28;20620;-68
2022/04/03 02:59:58;;;;;;;39.92;28.17;;;;;;;2.70;65.25;95103.53;5031339;28;20029;-68
2022/04/03 03:02:23;;;;;;;36.20;27.25;;;;;;;1.86;65.21;95028.22;5031259;28;20482;-69
2022/04/03 03:04:48;;;;;;;38.25;27.20;;;;;;;2.07;65.13;95047.50;5031594;28;20124;-69
2022/04/03 03:07:14;;;;;;;34.85;25.65;;;;;;;1.31;67.50;95037.19;5030497;28;20052;-69
2022/04/03 03:09:40;;;;;;;34.22;25.88;;;;;;;2.55;66.41;95193.50;5031589;28;20017;-68
2022/04/03 03:12:06;;;;;;;40.00;28.35;;;;;;;1.91;65.40;95002.03;5030041;28;20055;-69
2022/04/03 03:14:32;;;;;;;40.33;27.30;;;;;;;2.16;66.26;95102.94;5031675;28;20479;-69
2022/04/03 03:16:57;;;;;;;41.55;26.48;;;;;;;2.68;64.43;95094.34;5031560;28;20065;-68
2022/04/03 03:19:22;;;;;;;45.85;30.70;;;;;;;3.38;64.39;95135.91;5031720;28;20056;-68
2022/04/03 03:21:48;;;;;;;39.28;28.08;;;;;;;3.15;64.14;95151.31;5029936;28;20470;-70
2022/04/03 03:24:13;;;;;;;39.22;26.42;;;;;;;2.95;64.57;95205.34;5030084;28;20032;-68
2022/04/03 03:26:39;;;;;;;32.70;25.67;;;;;;;2.53;64.51;95129.19;5030157;28;20044;-69
2022/04/03 03:29:04;;;;;;;33.47;25.58;;;;;;;2.72;65.04;95177.63;5031418;28;20029;-67
2022/04/03 03:31:30;;;;;;;37.53;27.45;;;;;;;3.04;63.91;95114.47;5029891;28;20029;-68
2022/04/03 03:33:55;;;;;;;38.45;27.40;;;;;;;2.89;63.81;95098.63;5030124;28;20021;-68
2022/04/03 03:36:21;;;;;;;38.33;27.70;;;;;;;3.79;62.42;95204.41;5031014;28;20112;-69
2022/04/03 03:38:46;;;;;;;36.50;25.98;;;;;;;3.02;62.68;95124.47;5031293;28;20104;-68
2022/04/03 03:41:14;;;;;;;37.95;27.35;;;;;;;3.32;62.37;95091.41;5030996;28;20044;-68
2022/04/03 03:43:40;;;;;;;39.40;27.88;;;;;;;2.53;62.81;95101.09;5030110;28;20056;-68
2022/04/03 03:46:05;;;;;;;37.03;26.65;;;;;;;3.25;63.37;95193.41;5035444;28;20505;-68
2022/04/03 03:48:30;;;;;;;39.88;26.75;;;;;;;2.90;62.46;95086.28;5034402;28;20432;-69
2022/04/03 03:50:56;;;;;;;35.17;27.52;;;;;;;3.71;62.20;95173.31;5033787;28;20057;-68
2022/04/03 03:53:22;;;;;;;39.25;27.48;;;;;;;3.92;62.04;95193.38;5034307;28;20112;-69
2022/04/03 03:55:47;;;;;;;39.85;28.45;;;;;;;3.66;62.14;95191.72;5034153;28;20017;-69
2022/04/03 03:58:13;;;;;;;43.10;29.08;;;;;;;3.49;61.89;95125.41;5035312;28;20114;-68
2022/04/03 04:00:38;;;;;;;37.10;27.55;;;;;;;3.79;61.55;95169.41;5034915;28;20041;-69
2022/04/03 04:03:04;;;;;;;38.15;25.65;;;;;;;2.69;63.19;95151.84;5035103;28;20034;-68
2022/04/03 04:05:30;;;;;;;43.10;30.45;;;;;;;3.38;61.44;95214.00;5035205;28;20025;-71
2022/04/03 04:07:55;;;;;;;46.97;30.05;;;;;;;2.84;62.95;95143.28;5035342;28;20024;-71
2022/04/03 04:10:21;;;;;;;40.47;28.92;;;;;;;2.63;63.52;95145.00;5035027;28;20620;-70
2022/04/03 04:12:47;;;;;;;41.28;28.02;;;;;;;3.04;63.42;95224.84;5034154;28;20025;-69
2022/04/03 04:15:13;;;;;;;41.97;29.42;;;;;;;2.78;62.66;95095.19;5035325;28;20391;-70
2022/04/03 04:17:43;;;;;;;43.63;29.42;;;;;;;3.68;62.52;95230.91;5034844;28;20029;-70
2022/04/03 04:20:13;;;;;;;40.10;28.70;;;;;;;2.67;64.14;95161.84;5034894;28;20367;-70
2022/04/03 04:22:40;;;;;;;43.13;27.73;;;;;;;3.20;63.45;95227.56;5034760;28;20069;-69
2022/04/03 04:25:07;;;;;;;43.50;28.95;;;;;;;3.08;62.73;95183.88;5034772;28;20033;-69
2022/04/03 04:27:32;;;;;;;40.53;27.02;;;;;;;2.60;64.69;95188.28;5034849;28;20091;-70
2022/04/03 04:29:57;;;;;;;38.13;27.98;;;;;;;2.40;64.71;95182.91;5034497;28;20045;-70
2022/04/03 04:32:23;;;;;;;43.92;29.05;;;;;;;2.92;63.72;95226.06;5034055;28;20037;-70
2022/04/03 04:34:49;;;;;;;35.78;26.80;;;;;;;2.48;64.17;95186.91;5034276;28;20026;-70
2022/04/03 04:37:15;;;;;;;41.55;28.95;;;;;;;3.16;63.62;95193.09;5033054;28;20030;-69
2022/04/03 04:39:40;;;;;;;37.80;27.58;;;;;;;1.82;64.71;95095.31;5034597;28;20060;-71
2022/04/03 04:42:06;;;;;;;38.40;27.38;;;;;;;2.45;64.35;95209.19;5032650;28;20121;-68
2022/04/03 04:44:31;;;;;;;41.58;26.95;;;;;;;2.86;63.98;95249.66;5034521;28;20486;-70
2022/04/03 04:46:56;;;;;;;42.45;29.55;;;;;;;3.12;64.42;95234.88;5038596;22;20057;-63
2022/04/03 04:49:22;;;;;;;40.88;28.45;;;;;;;2.71;64.73;95228.53;4996555;28;20069;-63
2022/04/03 04:51:47;;;;;;;38.88;27.65;;;;;;;2.88;64.17;95204.78;5013951;28;20022;-63
2022/04/03 04:54:12;;;;;;;39.22;28.35;;;;;;;3.57;63.00;95240.59;5014267;28;20044;-64
2022/04/03 04:56:39;;;;;;;45.53;28.48;;;;;;;3.27;62.79;95249.13;5013598;28;20037;-63
2022/04/03 04:59:05;;;;;;;40.78;28.60;;;;;;;3.31;62.85;95223.94;5014056;28;20470;-64
2022/04/03 05:01:30;;;;;;;39.22;27.75;;;;;;;3.85;61.88;95255.97;5013633;28;20026;-64
2022/04/03 05:03:55;;;;;;;42.47;28.90;;;;;;;3.30;61.93;95191.59;5014073;28;20084;-64
2022/04/03 05:06:23;;;;;;;40.08;27.80;;;;;;;3.86;61.29;95233.09;5013797;28;20068;-64
2022/04/03 05:08:49;;;;;;;45.05;29.10;;;;;;;4.17;61.15;95258.44;5013915;28;20026;-64
2022/04/03 05:11:15;;;;;;;41.28;29.80;;;;;;;4.35;60.81;95265.06;5013763;28;20075;-64
2022/04/03 05:13:42;;;;;;;40.80;30.48;;;;;;;3.85;60.54;95244.66;5013780;28;20109;-64
2022/04/03 05:16:07;;;;;;;36.90;28.10;;;;;;;3.63;60.79;95235.13;4996112;28;20032;-64
2022/04/03 05:18:37;;;;;;;42.17;28.15;;;;;;;3.03;61.97;95215.38;5013948;28;20026;-65
2022/04/03 05:21:04;;;;;;;41.60;28.08;;;;;;;3.81;61.80;95254.13;5013274;28;20029;-65
2022/04/03 05:23:30;;;;;;;41.33;27.45;;;;;;;3.24;61.62;95218.13;5013524;28;20042;-65
2022/04/03 05:25:55;;;;;;;38.88;26.45;;;;;;;2.69;63.12;95245.63;5013583;28;20026;-65
2022/04/03 05:28:21;;;;;;;42.53;29.55;;;;;;;3.63;62.31;95264.06;4996029;28;20017;-65
2022/04/03 05:30:47;;;;;;;41.65;29.25;;;;;;;3.30;63.01;95285.44;5013048;28;20036;-65
2022/04/03 05:33:14;;;;;;;37.83;27.02;;;;;;;3.55;62.03;95261.91;5013526;28;20034;-65
2022/04/03 05:35:40;;;;;;;46.00;30.30;;;;;;;3.80;61.19;95273.59;4995531;28;20026;-64
2022/04/03 05:38:05;;;;;;;42.80;29.48;;;;;;;4.44;61.00;95279.28;5013608;28;20108;-64
2022/04/03 05:40:31;;;;;;;36.78;26.52;;;;;;;3.91;59.66;95270.72;5013105;28;20061;-65
2022/04/03 05:42:56;;;;;;;40.25;25.90;;;;;;;3.37;61.93;95288.63;5013263;28;20042;-65
2022/04/03 05:45:22;;;;;;;37.80;27.13;;;;;;;3.85;61.39;95263.09;5013187;28;20450;-64
2022/04/03 05:47:48;;;;;;;36.95;26.70;;;;;;;4.60;60.00;95303.78;5013229;28;20034;-65
2022/04/03 05:50:16;;;;;;;33.15;26.08;;;;;;;4.50;59.73;95264.25;5013027;28;20080;-65
2022/04/03 05:52:52;;;;;;;30.67;21.17;;;;;;;3.27;61.81;95305.13;5013169;28;20360;-64
2022/04/03 05:55:21;;;;;;;30.92;24.23;;;;;;;3.94;60.22;95311.53;5013076;28;20094;-65
2022/04/03 05:57:48;;;;;;;31.33;24.10;;;;;;;3.62;61.04;95301.13;5012866;28;20104;-65
2022/04/03 06:00:15;;;;;;;31.25;24.15;;;;;;;4.10;59.90;95307.91;5012713;28;20033;-65
2022/04/03 06:02:56;;;;;;;28.25;23.27;;;;;;;4.07;60.06;95310.25;5012822;28;20026;-64
2022/04/03 06:05:24;;;;;;;32.25;24.90;;;;;;;4.24;59.31;95283.72;5012726;28;20530;-65
2022/04/03 06:07:50;;;;;;;29.83;24.20;;;;;;;4.33;59.58;95306.66;5011936;28;20057;-65
2022/04/03 06:10:16;;;;;;;32.67;25.75;;;;;;;4.79;58.90;95322.53;5012337;28;20049;-64
2022/04/03 06:12:55;;;;;;;27.88;20.92;;;;;;;3.85;58.57;95278.88;5012729;28;20073;-64
2022/04/03 06:15:20;;;;;;;26.10;22.98;;;;;;;3.44;58.95;95255.03;4995148;28;20053;-65
2022/04/03 06:17:49;;;;;;;26.33;23.10;;;;;;;3.69;59.54;95272.75;5012434;28;20073;-65
2022/04/03 06:20:15;;;;;;;30.10;22.70;;;;;;;3.62;60.52;95325.59;5012185;28;20034;-64
2022/04/03 06:22:41;;;;;;;28.15;23.08;;;;;;;3.90;59.85;95334.16;5012370;28;20590;-65
2022/04/03 06:25:07;;;;;;;28.17;21.23;;;;;;;4.18;59.35;95301.34;5012480;28;20030;-65
2022/04/03 06:27:33;;;;;;;23.67;21.13;;;;;;;3.66;58.93;95260.13;4995168;28;20030;-66
2022/04/03 06:29:58;;;;;;;23.70;21.30;;;;;;;3.85;60.25;95342.03;4994352;28;20029;-63
2022/04/03 06:32:24;;;;;;;28.73;18.83;;;;;;;3.25;61.17;95345.88;5011867;28;20093;-64
2022/04/03 06:34:49;;;;;;;23.13;20.73;;;;;;;4.00;59.59;95307.09;5012223;28;20433;-64
2022/04/03 06:37:14;;;;;;;26.35;20.58;;;;;;;4.20;58.58;95314.25;5012122;28;20107;-65
2022/04/03 06:39:40;;;;;;;25.98;21.05;;;;;;;3.22;60.57;95281.44;5012088;28;20489;-64
2022/04/03 06:42:05;;;;;;;21.65;18.45;;;;;;;3.40;60.06;95348.59;5011801;28;20689;-65
2022/04/03 06:44:31;;;;;;;24.70;19.92;;;;;;;3.52;60.27;95325.53;5012168;28;20121;-65
2022/04/03 06:46:56;;;;;;;25.70;20.23;;;;;;;4.04;58.77;95316.81;5011975;28;20137;-65
2022/04/03 06:49:22;;;;;;;26.63;20.33;;;;;;;3.55;60.61;95330.28;5012142;28;20017;-65
2022/04/03 06:51:47;;;;;;;20.60;17.70;;;;;;;2.86;61.22;95306.69;5011546;28;20097;-65
2022/04/03 06:54:12;;;;;;;23.23;20.17;;;;;;;4.19;59.52;95374.00;5012184;28;20030;-65
2022/04/03 06:56:38;;;;;;;23.95;19.40;;;;;;;3.94;59.42;95337.84;5011794;28;20517;-65
2022/04/03 06:59:04;;;;;;;28.63;20.90;;;;;;;3.75;60.25;95363.03;5011907;28;20042;-62
2022/04/03 07:01:30;;;;;;;25.83;18.65;;;;;;;2.55;61.93;95316.91;5011387;28;20084;-67
2022/04/03 07:03:55;;;;;;;27.50;20.20;;;;;;;2.75;63.11;95375.94;5011605;28;20386;-64
2022/04/03 07:06:20;;;;;;;21.23;18.20;;;;;;;3.21;61.83;95339.53;5011463;28;20029;-63
2022/04/03 07:08:48;;;;;;;19.85;15.85;;;;;;;3.12;61.57;95374.19;5008952;28;20036;-65
2022/04/03 07:11:15;;;;;;;20.63;15.55;;;;;;;2.52;62.74;95366.53;5011052;28;20025;-65
2022/04/03 07:13:41;;;;;;;17.63;15.85;;;;;;;3.38;60.96;95309.44;5012495;28;20378;-63
2022/04/03 07:16:07;;;;;;;22.83;15.30;;;;;;;2.52;62.23;95291.19;4994369;28;20054;-64
2022/04/03 07:18:35;;;;;;;19.88;15.95;;;;;;;3.90;60.45;95381.53;5012235;28;20720;-65
2022/04/03 07:21:01;;;;;;;16.85;15.10;;;;;;;4.00;59.11;95320.25;5011411;28;20458;-64
2022/04/03 07:23:26;;;;;;;18.48;16.67;;;;;;;4.60;58.89;95367.03;5011502;28;20052;-63
2022/04/03 07:25:52;;;;;;;16.88;15.27;;;;;;;5.01;57.29;95356.53;5011421;28;20029;-64
2022/04/03 07:28:17;;;;;;;15.30;13.75;;;;;;;4.98;57.16;95372.09;5011654;28;20101;-63
2022/04/03 07:30:43;;;;;;;15.40;13.93;;;;;;;4.41;56.27;95321.16;5011094;28;20391;-62
2022/04/03 07:33:08;;;;;;;14.57;13.18;;;;;;;4.81;56.05;95399.50;5011633;28;20034;-65
2022/04/03 07:35:33;;;;;;;15.80;14.23;;;;;;;4.67;56.32;95378.13;5011397;28;20017;-65
2022/04/03 07:37:59;;;;;;;18.35;13.75;;;;;;;5.13;55.69;95369.47;5011718;28;20033;-64
2022/04/03 07:40:25;;;;;;;17.33;13.77;;;;;;;4.00;57.12;95368.41;5010498;28;20030;-65
2022/04/03 07:42:52;;;;;;;14.70;12.77;;;;;;;4.37;56.32;95367.50;4994111;28;20485;-64
2022/04/03 07:45:18;;;;;;;14.30;13.02;;;;;;;5.33;54.71;95372.13;5011240;28;20390;-68
2022/04/03 07:47:46;;;;;;;15.48;12.75;;;;;;;4.44;57.07;95216.06;5011366;28;20026;-67
2022/04/03 07:50:12;;;;;;;16.98;14.00;;;;;;;5.70;54.83;95331.44;5011045;28;20029;-67
2022/04/03 07:52:37;;;;;;;13.52;11.65;;;;;;;5.15;55.83;95385.81;5011245;28;20026;-67
2022/04/03 07:55:03;;;;;;;13.40;12.20;;;;;;;3.94;55.08;95229.16;5010449;28;20467;-67
2022/04/03 07:57:28;;;;;;;18.88;13.23;;;;;;;4.08;53.53;95174.97;5011246;28;20018;-66
2022/04/03 07:59:54;;;;;;;13.38;12.13;;;;;;;3.26;57.18;95289.63;4993722;28;20029;-66
2022/04/03 08:02:20;;;;;;;14.25;12.95;;;;;;;3.23;56.25;95190.25;5010655;28;20591;-66
2022/04/03 08:04:46;;;;;;;14.75;13.45;;;;;;;4.65;55.19;95309.06;5010744;28;20033;-67
2022/04/03 08:07:12;;;;;;;15.25;13.95;;;;;;;5.92;54.45;95357.53;5011134;28;20036;-69
2022/04/03 08:09:38;;;;;;;16.83;14.13;;;;;;;4.40;58.38;95393.31;5010450;28;20502;-70
2022/04/03 08:12:05;;;;;;;14.25;12.90;;;;;;;3.80;57.59;95345.44;5012244;28;20384;-69
2022/04/03 08:14:31;;;;;;;15.55;14.00;;;;;;;4.28;57.60;95384.84;5012752;28;20030;-72
2022/04/03 08:16:56;;;;;;;14.35;12.95;;;;;;;4.45;55.96;95274.78;5011387;28;20034;-72
2022/04/03 08:19:22;;;;;;;14.57;13.20;;;;;;;4.86;56.04;95311.72;5011363;28;20472;-65
2022/04/03 08:21:47;;;;;;;14.02;12.52;;;;;;;5.48;54.84;95310.63;5010991;28;20022;-69
2022/04/03 08:24:12;;;;;;;14.52;13.00;;;;;;;5.58;52.59;95333.53;5010361;28;20104;-68
2022/04/03 08:26:38;;;;;;;13.45;12.32;;;;;;;6.81;50.30;95407.88;5010952;28;20029;-69
2022/04/03 08:29:03;;;;;;;14.35;12.98;;;;;;;6.88;50.10;95405.72;5011001;28;20022;-69
2022/04/03 08:31:29;;;;;;;14.38;13.10;;;;;;;5.29;52.48;95335.97;5013418;28;20034;-70
2022/04/03 08:33:55;;;;;;;14.75;13.35;;;;;;;4.99;54.53;95369.19;5014722;28;20030;-71
2022/04/03 08:36:20;;;;;;;13.75;12.18;;;;;;;3.97;57.85;95358.38;5014561;28;20037;-66
2022/04/03 08:38:47;;;;;;;14.98;13.35;;;;;;;5.93;54.20;95357.25;5014651;28;20088;-68
2022/04/03 08:41:12;;;;;;;12.80;11.65;;;;;;;5.81;52.07;95263.56;5013483;28;20022;-69
2022/04/03 08:43:40;;;;;;;12.80;11.50;;;;;;;6.25;50.86;95319.91;5014489;28;20518;-67
2022/04/03 08:46:09;;;;;;;12.40;11.27;;;;;;;6.04;52.31;95460.19;4996744;28;20021;-70
2022/04/03 08:48:37;;;;;;;13.80;12.40;;;;;;;6.55;51.74;95433.63;5014240;28;20482;-65
2022/04/03 08:51:04;;;;;;;14.02;12.68;;;;;;;4.51;53.49;95242.16;5013978;28;20036;-64
2022/04/03 08:53:31;;;;;;;13.55;12.27;;;;;;;4.25;53.63;95222.09;5014218;28;20030;-66
2022/04/03 08:55:59;;;;;;;11.63;10.63;;;;;;;4.30;55.33;95340.59;5013391;28;20072;-66
2022/04/03 08:58:25;;;;;;;13.57;12.27;;;;;;;5.32;55.53;95459.41;5014107;28;20034;-65
2022/04/03 09:00:50;;;;;;;10.82;9.82;;;;;;;5.35;53.60;95504.53;5013551;28;20490;-66
2022/04/03 09:03:15;;;;;;;10.63;9.75;;;;;;;4.71;55.56;95475.91;5013892;28;20117;-65
2022/04/03 09:05:43;;;;;;;11.93;9.95;;;;;;;3.48;55.98;95295.56;5013938;28;20057;-65
2022/04/03 09:08:09;;;;;;;11.90;9.13;;;;;;;3.88;54.60;95336.25;4996487;28;20042;-65
2022/04/03 09:10:36;;;;;;;12.25;10.95;;;;;;;2.55;56.54;95282.78;5012890;28;20030;-66
2022/04/03 09:13:01;;;;;;;10.18;9.23;;;;;;;3.15;55.90;95317.69;5013734;28;20487;-66
2022/04/03 09:15:30;;;;;;;9.48;8.48;;;;;;;4.12;55.14;95407.69;5013713;28;20084;-67
2022/04/03 09:17:57;;;;;;;9.80;8.75;;;;;;;5.21;52.13;95390.03;5014023;28;20032;-64
2022/04/03 09:20:27;;;;;;;11.05;10.00;;;;;;;3.87;54.81;95300.44;5013354;28;20032;-64
2022/04/03 09:23:03;;;;;;;10.32;9.38;;;;;;;5.71;53.00;95481.59;5013799;28;20034;-63
2022/04/03 09:25:32;;;;;;;11.23;10.13;;;;;;;3.64;54.83;95323.50;5012660;28;20026;-62
2022/04/03 09:28:00;;;;;;;9.48;8.57;;;;;;;4.60;56.62;95421.56;5013569;28;20033;-62
2022/04/03 09:30:42;;;;;;;11.32;10.15;;;;;;;5.72;53.53;95448.84;5013188;28;20033;-63
2022/04/03 09:33:09;;;;;;;;;;;;;;;6.28;52.13;95473.63;4996259;28;20022;-63
2022/04/03 09:35:52;;;;;;;8.63;7.82;;;;;;;5.82;51.94;95482.38;5013322;28;20407;-64
2022/04/03 09:38:18;;;;;;;12.10;8.63;;;;;;;3.80;52.82;95310.44;5013378;28;20037;-64
2022/04/03 09:40:48;;;;;;;9.55;8.65;;;;;;;6.37;51.54;95324.84;5012207;28;20034;-64
2022/04/03 09:43:25;;;;;;;8.20;7.50;;;;;;;5.84;50.21;95331.66;4994643;28;20418;-66
2022/04/03 09:45:56;;;;;;;8.02;7.25;;;;;;;5.40;49.52;95321.72;5013191;28;20034;-64
2022/04/03 09:48:32;;;;;;;8.88;8.00;;;;;;;7.46;49.05;95488.69;5013209;28;20022;-64
2022/04/03 09:51:08;;;;;;;9.75;8.85;;;;;;;6.37;47.99;95367.13;5012925;28;20056;-66
2022/04/03 09:53:48;;;;;;;11.35;10.38;;;;;;;5.87;50.23;95331.09;5013211;28;20092;-64
2022/04/03 09:56:37;;;;;;;9.50;8.73;;;;;;;6.02;50.32;95349.56;5012161;28;20029;-64
2022/04/03 09:59:07;;;;;;;9.40;8.60;;;;;;;5.36;51.71;95289.81;5013233;28;20100;-64
2022/04/03 10:01:36;;;;;;;9.98;9.07;;;;;;;7.23;49.95;95453.13;5012482;28;20084;-64
2022/04/03 10:04:03;;;;;;;12.38;11.32;;;;;;;6.51;46.60;95436.84;5012689;28;20088;-64
2022/04/03 10:06:30;;;;;;;9.07;7.55;;;;;;;6.31;51.78;95484.47;4995163;28;20118;-65
2022/04/03 10:08:57;;;;;;;7.95;7.28;;;;;;;5.48;48.72;95377.38;5012823;28;20053;-64
2022/04/03 10:11:23;;;;;;;6.88;6.15;;;;;;;6.49;46.68;95372.09;5011633;28;20021;-64
2022/04/03 10:13:49;;;;;;;5.47;4.93;;;;;;;5.29;48.83;95438.84;5012655;28;20034;-64
2022/04/03 10:16:16;;;;;;;5.82;5.35;;;;;;;4.57;51.93;95308.81;5012582;28;20029;-65
2022/04/03 10:18:44;;;;;;;6.70;6.13;;;;;;;5.31;49.01;95271.34;5012530;28;20022;-64
2022/04/03 10:21:30;;;;;;;9.90;7.63;;;;;;;5.78;49.21;95475.25;5012251;28;20447;-63
2022/04/03 10:24:02;;;;;;;7.72;7.03;;;;;;;6.59;48.11;95506.03;5012469;28;20475;-64
2022/04/03 10:26:28;;;;;;;9.95;8.95;;;;;;;5.81;47.97;95332.19;5011668;28;20026;-64
2022/04/03 10:28:56;;;;;;;7.43;6.70;;;;;;;5.00;48.47;95327.81;5012501;28;20560;-65
2022/04/03 10:31:22;;;;;;;16.55;10.02;;;;;;;5.87;49.42;95448.06;5011907;28;20113;-64
2022/04/03 10:33:50;;;;;;;12.23;11.15;;;;;;;5.65;49.34;95461.53;5012301;28;20065;-64
2022/04/03 10:36:25;;;;;;;12.52;11.40;;;;;;;6.07;53.40;95348.75;5012279;28;20080;-65
2022/04/03 10:39:03;;;;;;;11.48;10.05;;;;;;;6.41;49.16;95478.38;5012179;28;20104;-66
2022/04/03 10:41:35;;;;;;;8.23;7.25;;;;;;;4.01;53.48;95442.91;5011115;28;20094;-65
2022/04/03 10:44:14;;;;;;;12.52;8.90;;;;;;;4.16;52.87;95387.69;5012027;28;20483;-64
2022/04/03 10:47:02;;;;;;;8.70;7.85;;;;;;;5.51;49.72;95486.06;5012157;28;20036;-64
2022/04/03 10:49:30;;;;;;;8.82;7.25;;;;;;;4.65;53.09;95479.53;5012051;28;20029;-65
2022/04/03 10:52:06;;;;;;;8.23;7.43;;;;;;;6.36;52.41;95455.38;5011739;28;20594;-62
2022/04/03 10:54:42;;;;;;;8.30;7.50;;;;;;;5.98;50.54;95433.00;5012002;28;20084;-65
2022/04/03 10:57:42;;;;;;;8.23;7.53;;;;;;;6.23;51.44;95482.34;4993490;28;20034;-63
2022/04/03 11:00:14;;;;;;;7.70;7.07;;;;;;;5.81;51.15;95487.94;5011572;28;20026;-63
2022/04/03 11:02:44;;;;;;;8.57;7.68;;;;;;;5.36;49.92;95400.59;5011801;28;20116;-63
2022/04/03 11:05:28;;;;;;;7.97;7.22;;;;;;;7.43;51.47;95483.97;5011874;28;20026;-64
2022/04/03 11:07:59;;;;;;;9.32;6.78;;;;;;;5.35;49.14;95488.69;5012027;28;20309;-64
2022/04/03 11:10:52;;;;;;;8.10;7.40;;;;;;;6.55;50.43;95476.72;5010582;28;20032;-64
2022/04/03 11:13:21;;;;;;;7.68;6.95;;;;;;;6.76;48.16;95477.44;5011837;28;20493;-63
2022/04/03 11:16:06;;;;;;;8.10;6.70;;;;;;;7.58;49.37;95477.78;5011754;28;20475;-63
2022/04/03 11:18:48;;;;;;;6.75;6.15;;;;;;;5.42;47.63;95493.72;5011169;28;20030;-63
2022/04/03 11:21:33;;;;;;;7.50;6.80;;;;;;;5.78;48.40;95454.13;5011450;28;20103;-63
2022/04/03 11:24:13;;;;;;;7.28;6.47;;;;;;;8.07;47.56;95480.25;4993842;28;20043;-64
2022/04/03 11:26:41;;;;;;;8.75;6.68;;;;;;;8.50;45.41;95461.84;4992983;28;20033;-63
2022/04/03 11:29:07;;;;;;;8.15;6.53;;;;;;;6.11;45.04;95397.34;5011622;28;20033;-63